createdAt,value
2018-10-06T00:00:33.450Z,9.97
2018-10-06T00:06:36.918Z,10.20
2018-10-06T00:12:40.526Z,9.97
2018-10-06T00:18:43.977Z,9.60
2018-10-06T00:24:47.597Z,9.67
2018-10-06T00:30:51.193Z,8.43
2018-10-06T00:36:54.544Z,9.57
2018-10-06T00:42:58.757Z,8.83
2018-10-06T00:49:03.041Z,9.20
2018-10-06T00:55:06.619Z,10.13
2018-10-06T01:01:09.860Z,9.90
2018-10-06T01:07:14.479Z,9.87
2018-10-06T01:13:18.141Z,10.07
2018-10-06T01:19:21.517Z,10.07
2018-10-06T01:25:25.269Z,10.23
2018-10-06T01:31:28.729Z,10.60
2018-10-06T01:37:32.244Z,12.37
2018-10-06T01:43:35.801Z,11.57
2018-10-06T01:49:39.470Z,11.50
2018-10-06T01:55:43.112Z,11.60
2018-10-06T02:01:46.522Z,12.20
2018-10-06T02:07:49.918Z,11.60
2018-10-06T02:13:53.525Z,11.73
2018-10-06T02:19:56.996Z,11.80
2018-10-06T02:26:00.722Z,12.50
2018-10-06T02:32:04.310Z,12.33
2018-10-06T02:38:07.641Z,11.83
2018-10-06T02:44:11.253Z,12.43
2018-10-06T02:50:14.752Z,12.60
2018-10-06T02:56:18.485Z,12.83
2018-10-06T03:02:21.967Z,12.07
2018-10-06T03:08:25.523Z,12.87
2018-10-06T03:14:30.243Z,12.73
2018-10-06T03:20:34.743Z,12.70
2018-10-06T03:26:38.122Z,12.93
2018-10-06T03:32:41.840Z,12.30
2018-10-06T03:38:45.740Z,13.77
2018-10-06T03:44:49.318Z,12.43
2018-10-06T03:50:53.387Z,12.70
2018-10-06T03:56:58.066Z,14.10
2018-10-06T04:03:03.197Z,13.33
2018-10-06T04:09:09.078Z,12.53
2018-10-06T04:15:12.552Z,13.03
2018-10-06T04:21:16.103Z,13.70
2018-10-06T04:27:20.294Z,15.40
2018-10-06T04:33:24.271Z,13.20
2018-10-06T04:39:27.664Z,13.73
2018-10-06T04:45:31.458Z,13.73
2018-10-06T04:51:35.701Z,13.93
2018-10-06T04:57:39.054Z,14.33
2018-10-06T05:03:42.577Z,13.40
2018-10-06T05:09:47.465Z,14.87
2018-10-06T05:15:51.080Z,14.50
2018-10-06T05:21:54.357Z,14.70
2018-10-06T05:27:58.550Z,15.37
2018-10-06T05:34:01.967Z,14.73
2018-10-06T05:40:05.853Z,13.57
2018-10-06T05:46:09.367Z,13.83
2018-10-06T05:52:13.174Z,13.53
2018-10-06T05:58:16.649Z,12.50
2018-10-06T06:04:20.089Z,13.13
2018-10-06T06:10:23.521Z,13.83
2018-10-06T06:16:27.464Z,16.53
2018-10-06T06:22:31.101Z,13.30
2018-10-06T06:28:34.930Z,12.43
2018-10-06T06:34:38.829Z,12.37
2018-10-06T06:40:42.577Z,11.70
2018-10-06T06:46:45.895Z,13.03
2018-10-06T06:52:50.682Z,9.03
2018-10-06T06:58:54.249Z,8.07
2018-10-06T07:04:57.494Z,7.47
2018-10-06T07:11:01.681Z,6.70
2018-10-06T07:17:05.769Z,6.87
2018-10-06T07:23:09.601Z,6.27
2018-10-06T07:29:13.103Z,6.43
2018-10-06T07:35:16.522Z,5.93
2018-10-06T07:41:20.122Z,6.10
2018-10-06T07:47:23.916Z,5.80
2018-10-06T07:53:27.894Z,4.90
2018-10-06T07:59:31.713Z,4.87
2018-10-06T08:05:38.519Z,4.40
2018-10-06T08:11:42.916Z,4.67
2018-10-06T08:17:46.274Z,4.53
2018-10-06T08:23:50.487Z,4.70
2018-10-06T08:29:54.589Z,4.00
2018-10-06T08:35:58.054Z,4.40
2018-10-06T08:42:01.867Z,4.40
2018-10-06T08:48:05.648Z,4.13
2018-10-06T08:54:09.536Z,4.33
2018-10-06T09:00:13.051Z,4.67
2018-10-06T09:06:17.440Z,3.80
2018-10-06T09:12:21.234Z,4.03
2018-10-06T09:18:25.700Z,3.80
2018-10-06T09:24:29.407Z,3.77
2018-10-06T09:30:33.643Z,3.87
2018-10-06T09:36:37.179Z,4.07
2018-10-06T09:42:40.959Z,3.40
2018-10-06T09:48:44.913Z,4.23
2018-10-06T09:54:48.724Z,3.77
2018-10-06T10:00:58.140Z,3.50
2018-10-06T10:07:01.669Z,4.23
2018-10-06T10:13:05.002Z,4.10
2018-10-06T10:19:08.432Z,3.77
2018-10-06T10:25:12.025Z,4.63
2018-10-06T10:31:16.120Z,3.83
2018-10-06T10:37:19.608Z,3.70
2018-10-06T10:43:23.510Z,4.43
2018-10-06T10:49:28.318Z,3.83
2018-10-06T10:55:31.956Z,4.13
2018-10-06T11:01:35.778Z,4.37
2018-10-06T11:07:39.567Z,4.50
2018-10-06T11:13:43.075Z,3.97
2018-10-06T11:19:46.516Z,3.07
2018-10-06T11:25:51.258Z,4.07
2018-10-06T11:31:54.638Z,3.90
2018-10-06T11:37:58.153Z,3.90
2018-10-06T11:44:01.492Z,4.10
2018-10-06T11:50:05.396Z,5.53
2018-10-06T11:56:08.790Z,3.50
2018-10-06T12:02:12.214Z,3.13
2018-10-06T12:08:16.162Z,3.37
2018-10-06T12:14:19.560Z,3.57
2018-10-06T12:20:23.023Z,3.33
2018-10-06T12:26:26.362Z,3.00
2018-10-06T12:32:31.102Z,3.40
2018-10-06T12:38:34.550Z,3.12
2018-10-06T12:44:38.437Z,3.40
2018-10-06T12:50:41.994Z,2.95
2018-10-06T12:56:45.675Z,3.15
2018-10-06T13:02:49.832Z,3.33
2018-10-06T13:08:53.279Z,3.00
2018-10-06T13:14:56.666Z,3.27
2018-10-06T13:21:00.429Z,2.83
2018-10-06T13:27:03.998Z,3.00
2018-10-06T13:33:07.439Z,2.60
2018-10-06T13:39:11.578Z,2.95
2018-10-06T13:45:15.718Z,2.90
2018-10-06T13:51:19.748Z,2.15
2018-10-06T13:57:23.345Z,2.45
2018-10-06T14:03:26.991Z,2.20
2018-10-06T14:09:30.318Z,2.55
2018-10-06T14:15:33.893Z,2.08
2018-10-06T14:21:37.852Z,2.05
2018-10-06T14:27:41.519Z,2.00
2018-10-06T14:33:51.481Z,2.20
2018-10-06T14:39:55.744Z,1.95
2018-10-06T14:45:59.687Z,2.33
2018-10-06T14:52:03.798Z,2.40
2018-10-06T14:58:08.965Z,2.42
2018-10-06T15:04:12.467Z,2.25
2018-10-06T15:10:16.481Z,1.82
2018-10-06T15:16:23.079Z,2.08
2018-10-06T15:22:29.742Z,2.70
2018-10-06T15:28:33.524Z,2.40
2018-10-06T15:34:37.206Z,2.52
2018-10-06T15:40:43.931Z,2.80
2018-10-06T15:46:48.850Z,3.72
2018-10-06T15:52:52.228Z,2.60
2018-10-06T15:58:58.165Z,3.83
2018-10-06T16:05:01.671Z,3.20
2018-10-06T16:11:05.290Z,2.87
2018-10-06T16:17:08.784Z,3.12
2018-10-06T16:23:12.327Z,2.67
2018-10-06T16:29:15.907Z,3.30
2018-10-06T16:35:19.371Z,3.90
2018-10-06T16:41:22.951Z,3.42
2018-10-06T16:47:26.966Z,3.10
2018-10-06T16:53:31.599Z,3.27
2018-10-06T16:59:35.706Z,3.55
2018-10-06T17:05:39.442Z,3.73
2018-10-06T17:11:43.273Z,8.25
2018-10-06T17:17:46.880Z,7.03
2018-10-06T17:23:50.487Z,5.40
2018-10-06T17:29:54.692Z,8.73
2018-10-06T17:35:58.455Z,7.77
2018-10-06T17:42:02.373Z,7.93
2018-10-06T17:48:07.113Z,4.17
2018-10-06T17:54:11.150Z,5.07
2018-10-06T18:00:14.872Z,5.60
2018-10-06T18:06:18.327Z,5.30
2018-10-06T18:12:22.176Z,5.70
2018-10-06T18:18:25.722Z,5.83
2018-10-06T18:24:30.059Z,4.63
2018-10-06T18:30:33.748Z,5.30
2018-10-06T18:36:38.311Z,5.30
2018-10-06T18:42:42.187Z,6.20
2018-10-06T18:48:46.101Z,5.73
2018-10-06T18:54:49.853Z,8.63
2018-10-06T19:00:53.463Z,9.17
2018-10-06T19:06:57.391Z,7.60
2018-10-06T19:13:01.537Z,7.83
2018-10-06T19:19:06.095Z,17.30
2018-10-06T19:25:09.985Z,14.60
2018-10-06T19:31:13.828Z,9.93
2018-10-06T19:37:18.401Z,5.53
2018-10-06T19:43:22.141Z,4.30
2018-10-06T19:49:26.698Z,4.90
2018-10-06T19:55:30.482Z,6.97
2018-10-06T20:01:34.539Z,6.23
2018-10-06T20:07:44.501Z,7.60
2018-10-06T20:13:48.360Z,9.63
2018-10-06T20:19:51.968Z,8.43
2018-10-06T20:25:55.674Z,7.53
2018-10-06T20:31:59.110Z,9.57
2018-10-06T20:38:02.692Z,5.57
2018-10-06T20:44:06.865Z,5.93
2018-10-06T20:50:10.632Z,6.23
2018-10-06T20:56:14.567Z,5.90
2018-10-06T21:02:17.937Z,6.73
2018-10-06T21:08:24.872Z,8.83
2018-10-06T21:14:28.410Z,9.80
2018-10-06T21:20:32.700Z,7.73
2018-10-06T21:26:36.647Z,7.40
2018-10-06T21:32:40.060Z,12.57
2018-10-06T21:38:43.685Z,14.60
2018-10-06T21:44:47.735Z,20.67
2018-10-06T21:50:51.948Z,22.97
2018-10-06T21:56:55.288Z,25.70
2018-10-06T22:02:59.435Z,27.70
2018-10-06T22:09:02.978Z,30.80
2018-10-06T22:15:06.700Z,33.37
2018-10-06T22:21:10.138Z,35.67
2018-10-06T22:27:14.076Z,39.83
2018-10-06T22:33:17.565Z,40.87
2018-10-06T22:39:21.331Z,40.77
2018-10-06T22:45:24.854Z,41.57
2018-10-06T22:51:28.526Z,42.03
2018-10-06T22:57:32.343Z,43.77
2018-10-06T23:03:35.898Z,43.73
2018-10-06T23:09:39.787Z,44.37
2018-10-06T23:15:44.040Z,43.23
2018-10-06T23:21:48.984Z,45.10
2018-10-06T23:27:53.195Z,43.43
2018-10-06T23:33:58.182Z,43.73
2018-10-06T23:40:02.397Z,45.10
2018-10-06T23:46:06.044Z,44.93
2018-10-06T23:52:09.504Z,45.27
2018-10-06T23:58:13.132Z,46.47
